sensor_id;sensor_type;location;lat;lon;timestamp;temperature;humidity
14008;DHT22;61651;45.508;12.232;2024-02-23T00:00:28;13.60;99.90
14008;DHT22;61651;45.508;12.232;2024-02-23T00:03:32;13.60;99.90
14008;DHT22;61651;45.508;12.232;2024-02-23T00:06:35;13.50;99.90
14008;DHT22;61651;45.508;12.232;2024-02-23T00:09:37;13.50;99.90
14008;DHT22;61651;45.508;12.232;2024-02-23T00:12:39;13.50;99.90
14008;DHT22;61651;45.508;12.232;2024-02-23T00:15:41;13.50;99.90
14008;DHT22;61651;45.508;12.232;2024-02-23T00:18:46;13.50;99.90
14008;DHT22;61651;45.508;12.232;2024-02-23T00:21:48;13.50;99.90
14008;DHT22;61651;45.508;12.232;2024-02-23T00:24:50;13.50;99.90
14008;DHT22;61651;45.508;12.232;2024-02-23T00:27:52;13.60;99.90
14008;DHT22;61651;45.508;12.232;2024-02-23T00:30:54;13.60;99.90
14008;DHT22;61651;45.508;12.232;2024-02-23T00:33:57;13.60;99.90
14008;DHT22;61651;45.508;12.232;2024-02-23T00:36:59;13.60;99.90
14008;DHT22;61651;45.508;12.232;2024-02-23T00:40:03;13.60;99.90
14008;DHT22;61651;45.508;12.232;2024-02-23T00:43:05;13.50;99.90
14008;DHT22;61651;45.508;12.232;2024-02-23T00:46:07;13.50;99.90
14008;DHT22;61651;45.508;12.232;2024-02-23T00:49:11;13.50;99.90
14008;DHT22;61651;45.508;12.232;2024-02-23T00:52:13;13.50;99.90
14008;DHT22;61651;45.508;12.232;2024-02-23T00:55:15;13.50;99.90
14008;DHT22;61651;45.508;12.232;2024-02-23T00:58:18;13.50;99.90
14008;DHT22;61651;45.508;12.232;2024-02-23T01:01:20;13.50;99.90
14008;DHT22;61651;45.508;12.232;2024-02-23T01:04:23;13.40;99.90
14008;DHT22;61651;45.508;12.232;2024-02-23T01:07:26;13.50;99.90
14008;DHT22;61651;45.508;12.232;2024-02-23T01:10:28;13.50;99.90
14008;DHT22;61651;45.508;12.232;2024-02-23T01:13:30;13.50;99.90
14008;DHT22;61651;45.508;12.232;2024-02-23T01:16:32;13.50;99.90
14008;DHT22;61651;45.508;12.232;2024-02-23T01:19:35;13.40;99.90
14008;DHT22;61651;45.508;12.232;2024-02-23T01:22:37;13.50;99.90
14008;DHT22;61651;45.508;12.232;2024-02-23T01:25:39;13.50;99.90
14008;DHT22;61651;45.508;12.232;2024-02-23T01:28:41;13.50;99.90
14008;DHT22;61651;45.508;12.232;2024-02-23T01:31:43;13.40;99.90
14008;DHT22;61651;45.508;12.232;2024-02-23T01:34:47;13.50;99.90
14008;DHT22;61651;45.508;12.232;2024-02-23T01:37:49;13.50;99.90
14008;DHT22;61651;45.508;12.232;2024-02-23T01:40:51;13.50;99.90
14008;DHT22;61651;45.508;12.232;2024-02-23T01:43:53;13.50;99.90
14008;DHT22;61651;45.508;12.232;2024-02-23T01:46:55;13.50;99.90
14008;DHT22;61651;45.508;12.232;2024-02-23T01:49:59;13.50;99.90
14008;DHT22;61651;45.508;12.232;2024-02-23T01:53:02;13.40;99.90
14008;DHT22;61651;45.508;12.232;2024-02-23T01:56:05;13.40;99.90
14008;DHT22;61651;45.508;12.232;2024-02-23T01:59:08;13.40;99.90
14008;DHT22;61651;45.508;12.232;2024-02-23T02:02:12;13.40;99.90
14008;DHT22;61651;45.508;12.232;2024-02-23T02:05:15;13.40;99.90
14008;DHT22;61651;45.508;12.232;2024-02-23T02:08:18;13.40;99.90
14008;DHT22;61651;45.508;12.232;2024-02-23T02:11:20;13.40;99.90
14008;DHT22;61651;45.508;12.232;2024-02-23T02:14:22;13.40;99.90
14008;DHT22;61651;45.508;12.232;2024-02-23T02:17:24;13.40;99.90
14008;DHT22;61651;45.508;12.232;2024-02-23T02:20:28;13.40;99.90
14008;DHT22;61651;45.508;12.232;2024-02-23T02:23:33;13.40;99.90
14008;DHT22;61651;45.508;12.232;2024-02-23T02:26:37;13.40;99.90
14008;DHT22;61651;45.508;12.232;2024-02-23T02:29:39;13.30;99.90
14008;DHT22;61651;45.508;12.232;2024-02-23T02:32:42;13.40;99.90
14008;DHT22;61651;45.508;12.232;2024-02-23T02:35:45;13.40;99.90
14008;DHT22;61651;45.508;12.232;2024-02-23T02:38:47;13.50;99.90
14008;DHT22;61651;45.508;12.232;2024-02-23T02:41:50;13.50;99.90
14008;DHT22;61651;45.508;12.232;2024-02-23T02:44:52;13.40;99.90
14008;DHT22;61651;45.508;12.232;2024-02-23T02:47:54;13.50;99.90
14008;DHT22;61651;45.508;12.232;2024-02-23T02:50:58;13.40;99.90
14008;DHT22;61651;45.508;12.232;2024-02-23T02:54:00;13.50;99.90
14008;DHT22;61651;45.508;12.232;2024-02-23T02:57:02;13.50;99.90
14008;DHT22;61651;45.508;12.232;2024-02-23T03:00:05;13.40;99.90
14008;DHT22;61651;45.508;12.232;2024-02-23T03:03:09;13.40;99.90
14008;DHT22;61651;45.508;12.232;2024-02-23T03:06:12;13.40;99.90
14008;DHT22;61651;45.508;12.232;2024-02-23T03:09:14;13.30;99.90
14008;DHT22;61651;45.508;12.232;2024-02-23T03:12:16;13.30;99.90
14008;DHT22;61651;45.508;12.232;2024-02-23T03:15:18;13.40;99.90
14008;DHT22;61651;45.508;12.232;2024-02-23T03:18:20;13.40;99.90
14008;DHT22;61651;45.508;12.232;2024-02-23T03:21:24;13.40;99.90
14008;DHT22;61651;45.508;12.232;2024-02-23T03:24:26;13.50;99.90
14008;DHT22;61651;45.508;12.232;2024-02-23T03:27:29;13.50;99.90
14008;DHT22;61651;45.508;12.232;2024-02-23T03:30:31;13.50;99.90
14008;DHT22;61651;45.508;12.232;2024-02-23T03:33:33;13.50;99.90
14008;DHT22;61651;45.508;12.232;2024-02-23T03:36:37;13.50;99.90
14008;DHT22;61651;45.508;12.232;2024-02-23T03:39:39;13.50;99.90
14008;DHT22;61651;45.508;12.232;2024-02-23T03:42:40;13.50;99.90
14008;DHT22;61651;45.508;12.232;2024-02-23T03:45:44;13.50;99.90
14008;DHT22;61651;45.508;12.232;2024-02-23T03:48:46;13.30;99.90
14008;DHT22;61651;45.508;12.232;2024-02-23T03:51:49;13.40;99.90
14008;DHT22;61651;45.508;12.232;2024-02-23T03:54:51;13.50;99.90
14008;DHT22;61651;45.508;12.232;2024-02-23T03:57:55;13.50;99.90
14008;DHT22;61651;45.508;12.232;2024-02-23T04:00:57;13.60;99.90
14008;DHT22;61651;45.508;12.232;2024-02-23T04:03:59;13.60;99.90
14008;DHT22;61651;45.508;12.232;2024-02-23T04:07:02;13.50;99.90
14008;DHT22;61651;45.508;12.232;2024-02-23T04:10:05;13.30;99.90
14008;DHT22;61651;45.508;12.232;2024-02-23T04:13:07;13.30;99.90
14008;DHT22;61651;45.508;12.232;2024-02-23T04:16:13;13.20;99.90
14008;DHT22;61651;45.508;12.232;2024-02-23T04:19:15;13.20;99.90
14008;DHT22;61651;45.508;12.232;2024-02-23T04:22:19;13.20;99.90
14008;DHT22;61651;45.508;12.232;2024-02-23T04:25:21;13.40;99.90
14008;DHT22;61651;45.508;12.232;2024-02-23T04:28:22;13.20;99.90
14008;DHT22;61651;45.508;12.232;2024-02-23T04:31:27;13.00;99.90
14008;DHT22;61651;45.508;12.232;2024-02-23T04:34:29;13.20;99.90
14008;DHT22;61651;45.508;12.232;2024-02-23T04:37:32;13.30;99.90
14008;DHT22;61651;45.508;12.232;2024-02-23T04:40:34;13.30;99.90
14008;DHT22;61651;45.508;12.232;2024-02-23T04:43:36;13.20;99.90
14008;DHT22;61651;45.508;12.232;2024-02-23T04:46:38;13.30;99.90
14008;DHT22;61651;45.508;12.232;2024-02-23T04:49:40;13.10;99.90
14008;DHT22;61651;45.508;12.232;2024-02-23T04:52:43;13.30;99.90
14008;DHT22;61651;45.508;12.232;2024-02-23T04:55:45;13.20;99.90
14008;DHT22;61651;45.508;12.232;2024-02-23T04:58:48;13.50;99.90
14008;DHT22;61651;45.508;12.232;2024-02-23T05:01:50;13.30;99.90
14008;DHT22;61651;45.508;12.232;2024-02-23T05:04:52;13.30;99.90
14008;DHT22;61651;45.508;12.232;2024-02-23T05:07:55;13.30;99.90
14008;DHT22;61651;45.508;12.232;2024-02-23T05:10:58;13.40;99.90
14008;DHT22;61651;45.508;12.232;2024-02-23T05:14:00;13.70;99.90
14008;DHT22;61651;45.508;12.232;2024-02-23T05:17:01;13.60;99.90
14008;DHT22;61651;45.508;12.232;2024-02-23T05:20:04;13.70;99.90
14008;DHT22;61651;45.508;12.232;2024-02-23T05:23:12;13.70;99.90
14008;DHT22;61651;45.508;12.232;2024-02-23T05:26:16;13.60;99.90
14008;DHT22;61651;45.508;12.232;2024-02-23T05:29:18;13.30;99.90
14008;DHT22;61651;45.508;12.232;2024-02-23T05:32:22;13.40;99.90
14008;DHT22;61651;45.508;12.232;2024-02-23T05:35:24;13.50;99.90
14008;DHT22;61651;45.508;12.232;2024-02-23T05:38:28;13.40;99.90
14008;DHT22;61651;45.508;12.232;2024-02-23T05:41:31;13.70;99.90
14008;DHT22;61651;45.508;12.232;2024-02-23T05:44:33;13.70;99.90
14008;DHT22;61651;45.508;12.232;2024-02-23T05:47:35;13.70;99.90
14008;DHT22;61651;45.508;12.232;2024-02-23T05:50:38;13.50;99.90
14008;DHT22;61651;45.508;12.232;2024-02-23T05:53:41;13.50;99.90
14008;DHT22;61651;45.508;12.232;2024-02-23T05:56:44;13.70;99.90
14008;DHT22;61651;45.508;12.232;2024-02-23T05:59:47;13.80;99.90
14008;DHT22;61651;45.508;12.232;2024-02-23T06:02:49;14.00;99.90
14008;DHT22;61651;45.508;12.232;2024-02-23T06:05:51;13.80;99.90
14008;DHT22;61651;45.508;12.232;2024-02-23T06:08:56;13.90;99.90
14008;DHT22;61651;45.508;12.232;2024-02-23T06:11:58;13.80;99.90
14008;DHT22;61651;45.508;12.232;2024-02-23T06:15:00;14.00;99.90
14008;DHT22;61651;45.508;12.232;2024-02-23T06:18:02;14.00;99.90
14008;DHT22;61651;45.508;12.232;2024-02-23T06:21:11;14.40;99.90
14008;DHT22;61651;45.508;12.232;2024-02-23T06:24:16;14.30;99.90
14008;DHT22;61651;45.508;12.232;2024-02-23T06:27:18;14.40;99.90
14008;DHT22;61651;45.508;12.232;2024-02-23T06:30:20;14.50;99.90
14008;DHT22;61651;45.508;12.232;2024-02-23T06:33:22;14.50;99.90
14008;DHT22;61651;45.508;12.232;2024-02-23T06:36:24;14.60;99.90
14008;DHT22;61651;45.508;12.232;2024-02-23T06:39:27;14.60;99.90
14008;DHT22;61651;45.508;12.232;2024-02-23T06:42:29;14.70;99.90
14008;DHT22;61651;45.508;12.232;2024-02-23T06:45:31;14.70;99.90
14008;DHT22;61651;45.508;12.232;2024-02-23T06:48:33;14.70;99.90
14008;DHT22;61651;45.508;12.232;2024-02-23T06:51:35;14.80;99.90
14008;DHT22;61651;45.508;12.232;2024-02-23T06:54:40;14.80;99.90
14008;DHT22;61651;45.508;12.232;2024-02-23T06:57:42;14.80;99.90
14008;DHT22;61651;45.508;12.232;2024-02-23T07:00:44;14.70;99.90
14008;DHT22;61651;45.508;12.232;2024-02-23T07:03:47;14.60;99.90
14008;DHT22;61651;45.508;12.232;2024-02-23T07:06:51;14.60;99.90
14008;DHT22;61651;45.508;12.232;2024-02-23T07:09:55;14.60;99.90
14008;DHT22;61651;45.508;12.232;2024-02-23T07:12:57;14.70;99.90
14008;DHT22;61651;45.508;12.232;2024-02-23T07:16:00;14.70;99.90
14008;DHT22;61651;45.508;12.232;2024-02-23T07:19:02;14.70;99.90
14008;DHT22;61651;45.508;12.232;2024-02-23T07:22:04;14.80;99.90
14008;DHT22;61651;45.508;12.232;2024-02-23T07:25:08;14.80;99.90
14008;DHT22;61651;45.508;12.232;2024-02-23T07:28:10;14.70;99.90
14008;DHT22;61651;45.508;12.232;2024-02-23T07:31:12;14.80;99.90
14008;DHT22;61651;45.508;12.232;2024-02-23T07:34:14;14.70;99.90
14008;DHT22;61651;45.508;12.232;2024-02-23T07:37:16;14.80;99.90
14008;DHT22;61651;45.508;12.232;2024-02-23T07:40:20;14.80;99.90
14008;DHT22;61651;45.508;12.232;2024-02-23T07:43:22;14.90;99.90
14008;DHT22;61651;45.508;12.232;2024-02-23T07:46:25;14.80;99.90
14008;DHT22;61651;45.508;12.232;2024-02-23T07:49:27;14.70;99.90
14008;DHT22;61651;45.508;12.232;2024-02-23T07:52:29;14.70;99.90
14008;DHT22;61651;45.508;12.232;2024-02-23T07:55:32;14.60;99.90
14008;DHT22;61651;45.508;12.232;2024-02-23T07:58:34;14.40;99.90
14008;DHT22;61651;45.508;12.232;2024-02-23T08:01:36;14.40;99.90
14008;DHT22;61651;45.508;12.232;2024-02-23T08:04:38;14.60;99.90
14008;DHT22;61651;45.508;12.232;2024-02-23T08:07:40;14.70;99.90
14008;DHT22;61651;45.508;12.232;2024-02-23T08:10:44;14.60;99.90
14008;DHT22;61651;45.508;12.232;2024-02-23T08:13:46;14.60;99.90
14008;DHT22;61651;45.508;12.232;2024-02-23T08:16:48;14.40;99.90
14008;DHT22;61651;45.508;12.232;2024-02-23T08:19:50;14.40;99.90
14008;DHT22;61651;45.508;12.232;2024-02-23T08:22:52;14.30;99.90
14008;DHT22;61651;45.508;12.232;2024-02-23T08:25:56;14.20;99.90
14008;DHT22;61651;45.508;12.232;2024-02-23T08:28:59;14.20;99.90
14008;DHT22;61651;45.508;12.232;2024-02-23T08:32:01;14.00;99.90
14008;DHT22;61651;45.508;12.232;2024-02-23T08:35:03;14.10;99.90
14008;DHT22;61651;45.508;12.232;2024-02-23T08:38:05;14.40;99.90
14008;DHT22;61651;45.508;12.232;2024-02-23T08:41:09;14.20;99.90
14008;DHT22;61651;45.508;12.232;2024-02-23T08:44:11;14.30;99.90
14008;DHT22;61651;45.508;12.232;2024-02-23T08:47:13;14.30;99.90
14008;DHT22;61651;45.508;12.232;2024-02-23T08:50:15;14.50;99.90
14008;DHT22;61651;45.508;12.232;2024-02-23T08:53:17;14.30;99.90
14008;DHT22;61651;45.508;12.232;2024-02-23T08:56:20;14.50;99.90
14008;DHT22;61651;45.508;12.232;2024-02-23T08:59:22;14.20;99.90
14008;DHT22;61651;45.508;12.232;2024-02-23T09:02:24;14.10;99.90
14008;DHT22;61651;45.508;12.232;2024-02-23T09:05:27;14.30;99.90
14008;DHT22;61651;45.508;12.232;2024-02-23T09:08:29;13.90;99.90
14008;DHT22;61651;45.508;12.232;2024-02-23T09:11:32;14.20;99.90
14008;DHT22;61651;45.508;12.232;2024-02-23T09:14:34;14.10;99.90
14008;DHT22;61651;45.508;12.232;2024-02-23T09:17:40;14.30;99.90
14008;DHT22;61651;45.508;12.232;2024-02-23T09:20:42;14.20;99.90
14008;DHT22;61651;45.508;12.232;2024-02-23T09:23:44;14.10;99.90
14008;DHT22;61651;45.508;12.232;2024-02-23T09:26:48;14.20;99.90
14008;DHT22;61651;45.508;12.232;2024-02-23T09:29:50;14.20;99.90
14008;DHT22;61651;45.508;12.232;2024-02-23T09:32:52;14.00;99.90
14008;DHT22;61651;45.508;12.232;2024-02-23T09:35:55;14.30;99.90
14008;DHT22;61651;45.508;12.232;2024-02-23T09:38:57;14.40;99.90
14008;DHT22;61651;45.508;12.232;2024-02-23T09:42:01;14.50;99.90
14008;DHT22;61651;45.508;12.232;2024-02-23T09:45:04;14.50;99.90
14008;DHT22;61651;45.508;12.232;2024-02-23T09:48:07;14.30;99.90
14008;DHT22;61651;45.508;12.232;2024-02-23T09:51:12;14.30;99.90
14008;DHT22;61651;45.508;12.232;2024-02-23T09:54:15;14.10;99.90
14008;DHT22;61651;45.508;12.232;2024-02-23T09:57:19;14.20;99.90
14008;DHT22;61651;45.508;12.232;2024-02-23T10:00:23;14.30;99.90
14008;DHT22;61651;45.508;12.232;2024-02-23T10:03:28;14.60;99.90
14008;DHT22;61651;45.508;12.232;2024-02-23T10:06:31;14.70;99.90
14008;DHT22;61651;45.508;12.232;2024-02-23T10:09:33;14.70;99.90
14008;DHT22;61651;45.508;12.232;2024-02-23T10:12:36;14.50;99.90
14008;DHT22;61651;45.508;12.232;2024-02-23T10:15:39;14.10;99.90
14008;DHT22;61651;45.508;12.232;2024-02-23T10:18:41;14.20;99.90
14008;DHT22;61651;45.508;12.232;2024-02-23T10:21:45;14.20;99.90
14008;DHT22;61651;45.508;12.232;2024-02-23T10:24:47;14.20;99.90
14008;DHT22;61651;45.508;12.232;2024-02-23T10:27:50;14.20;99.90
14008;DHT22;61651;45.508;12.232;2024-02-23T10:30:53;13.90;99.90
14008;DHT22;61651;45.508;12.232;2024-02-23T10:33:58;13.90;99.90
14008;DHT22;61651;45.508;12.232;2024-02-23T10:37:00;13.70;99.90
14008;DHT22;61651;45.508;12.232;2024-02-23T10:40:06;13.80;99.90
14008;DHT22;61651;45.508;12.232;2024-02-23T10:43:14;13.80;99.90
14008;DHT22;61651;45.508;12.232;2024-02-23T10:46:18;13.90;99.90
14008;DHT22;61651;45.508;12.232;2024-02-23T10:49:23;13.70;99.90
14008;DHT22;61651;45.508;12.232;2024-02-23T10:52:27;13.70;99.90
14008;DHT22;61651;45.508;12.232;2024-02-23T10:55:31;13.70;99.90
14008;DHT22;61651;45.508;12.232;2024-02-23T10:58:35;13.60;99.90
14008;DHT22;61651;45.508;12.232;2024-02-23T11:01:38;13.70;99.90
14008;DHT22;61651;45.508;12.232;2024-02-23T11:04:41;13.60;99.90
14008;DHT22;61651;45.508;12.232;2024-02-23T11:07:46;13.90;99.90
14008;DHT22;61651;45.508;12.232;2024-02-23T11:10:50;13.80;99.90
14008;DHT22;61651;45.508;12.232;2024-02-23T11:13:56;13.90;99.90
14008;DHT22;61651;45.508;12.232;2024-02-23T11:16:58;13.70;99.90
14008;DHT22;61651;45.508;12.232;2024-02-23T11:20:03;13.90;99.90
14008;DHT22;61651;45.508;12.232;2024-02-23T11:23:13;14.00;99.90
14008;DHT22;61651;45.508;12.232;2024-02-23T11:26:16;14.00;99.90
14008;DHT22;61651;45.508;12.232;2024-02-23T11:29:19;14.00;99.90
14008;DHT22;61651;45.508;12.232;2024-02-23T11:32:21;13.90;99.90
14008;DHT22;61651;45.508;12.232;2024-02-23T11:35:26;13.80;99.90
14008;DHT22;61651;45.508;12.232;2024-02-23T11:38:29;13.90;99.90
14008;DHT22;61651;45.508;12.232;2024-02-23T11:41:32;13.90;99.90
14008;DHT22;61651;45.508;12.232;2024-02-23T11:44:35;13.80;99.90
14008;DHT22;61651;45.508;12.232;2024-02-23T11:47:37;14.00;99.90
14008;DHT22;61651;45.508;12.232;2024-02-23T11:50:39;13.70;99.90
14008;DHT22;61651;45.508;12.232;2024-02-23T11:53:42;13.70;99.90
14008;DHT22;61651;45.508;12.232;2024-02-23T11:56:44;13.10;99.90
14008;DHT22;61651;45.508;12.232;2024-02-23T11:59:47;13.10;99.90
14008;DHT22;61651;45.508;12.232;2024-02-23T12:02:49;13.20;99.90
14008;DHT22;61651;45.508;12.232;2024-02-23T12:05:51;13.30;99.90
14008;DHT22;61651;45.508;12.232;2024-02-23T12:08:53;13.50;99.90
14008;DHT22;61651;45.508;12.232;2024-02-23T12:11:55;13.20;99.90
14008;DHT22;61651;45.508;12.232;2024-02-23T12:14:59;12.80;99.90
14008;DHT22;61651;45.508;12.232;2024-02-23T12:18:03;12.50;99.90
14008;DHT22;61651;45.508;12.232;2024-02-23T12:21:06;12.60;99.90
14008;DHT22;61651;45.508;12.232;2024-02-23T12:24:09;12.60;99.90
14008;DHT22;61651;45.508;12.232;2024-02-23T12:27:10;12.60;99.90
14008;DHT22;61651;45.508;12.232;2024-02-23T12:30:17;12.20;99.90
14008;DHT22;61651;45.508;12.232;2024-02-23T12:33:20;12.20;99.90
14008;DHT22;61651;45.508;12.232;2024-02-23T12:36:23;12.30;99.90
14008;DHT22;61651;45.508;12.232;2024-02-23T12:39:25;12.70;99.90
14008;DHT22;61651;45.508;12.232;2024-02-23T12:42:27;13.00;99.90
14008;DHT22;61651;45.508;12.232;2024-02-23T12:45:31;13.20;99.90
14008;DHT22;61651;45.508;12.232;2024-02-23T12:48:33;13.10;99.90
14008;DHT22;61651;45.508;12.232;2024-02-23T12:51:35;13.30;99.90
14008;DHT22;61651;45.508;12.232;2024-02-23T12:54:37;13.60;99.90
14008;DHT22;61651;45.508;12.232;2024-02-23T12:57:38;13.80;99.90
14008;DHT22;61651;45.508;12.232;2024-02-23T13:00:42;14.00;99.90
14008;DHT22;61651;45.508;12.232;2024-02-23T13:03:45;14.10;99.90
14008;DHT22;61651;45.508;12.232;2024-02-23T13:06:47;14.20;99.90
14008;DHT22;61651;45.508;12.232;2024-02-23T13:09:49;13.90;99.90
14008;DHT22;61651;45.508;12.232;2024-02-23T13:12:51;13.40;99.90
14008;DHT22;61651;45.508;12.232;2024-02-23T13:15:55;13.30;99.90
14008;DHT22;61651;45.508;12.232;2024-02-23T13:18:57;13.30;99.90
14008;DHT22;61651;45.508;12.232;2024-02-23T13:21:59;13.60;99.90
14008;DHT22;61651;45.508;12.232;2024-02-23T13:25:02;13.80;99.90
14008;DHT22;61651;45.508;12.232;2024-02-23T13:28:04;14.00;99.90
14008;DHT22;61651;45.508;12.232;2024-02-23T13:31:08;14.10;99.90
14008;DHT22;61651;45.508;12.232;2024-02-23T13:34:10;14.30;99.90
14008;DHT22;61651;45.508;12.232;2024-02-23T13:37:12;14.40;99.90
14008;DHT22;61651;45.508;12.232;2024-02-23T13:40:15;14.50;99.90
14008;DHT22;61651;45.508;12.232;2024-02-23T13:43:17;14.50;99.90
14008;DHT22;61651;45.508;12.232;2024-02-23T13:46:21;14.60;99.90
14008;DHT22;61651;45.508;12.232;2024-02-23T13:49:23;14.60;99.90
14008;DHT22;61651;45.508;12.232;2024-02-23T13:52:25;14.70;99.90
14008;DHT22;61651;45.508;12.232;2024-02-23T13:55:27;14.80;99.90
14008;DHT22;61651;45.508;12.232;2024-02-23T13:58:29;14.80;99.90
14008;DHT22;61651;45.508;12.232;2024-02-23T14:01:32;14.80;99.90
14008;DHT22;61651;45.508;12.232;2024-02-23T14:04:35;14.80;99.90
14008;DHT22;61651;45.508;12.232;2024-02-23T14:07:37;14.80;99.90
14008;DHT22;61651;45.508;12.232;2024-02-23T14:10:39;14.80;99.90
14008;DHT22;61651;45.508;12.232;2024-02-23T14:13:43;14.80;99.90
14008;DHT22;61651;45.508;12.232;2024-02-23T14:16:48;14.80;99.90
14008;DHT22;61651;45.508;12.232;2024-02-23T14:19:50;14.60;99.90
14008;DHT22;61651;45.508;12.232;2024-02-23T14:22:52;14.60;99.90
14008;DHT22;61651;45.508;12.232;2024-02-23T14:25:54;14.50;99.90
14008;DHT22;61651;45.508;12.232;2024-02-23T14:28:56;14.40;99.90
14008;DHT22;61651;45.508;12.232;2024-02-23T14:32:00;14.40;99.90
14008;DHT22;61651;45.508;12.232;2024-02-23T14:35:03;14.50;99.90
14008;DHT22;61651;45.508;12.232;2024-02-23T14:38:05;14.60;99.90
14008;DHT22;61651;45.508;12.232;2024-02-23T14:41:07;14.60;99.90
14008;DHT22;61651;45.508;12.232;2024-02-23T14:44:09;14.70;99.90
14008;DHT22;61651;45.508;12.232;2024-02-23T14:47:13;14.70;99.90
14008;DHT22;61651;45.508;12.232;2024-02-23T14:50:15;14.70;99.90
14008;DHT22;61651;45.508;12.232;2024-02-23T14:53:17;14.70;99.90
14008;DHT22;61651;45.508;12.232;2024-02-23T14:56:19;14.70;99.90
14008;DHT22;61651;45.508;12.232;2024-02-23T14:59:21;14.60;99.90
14008;DHT22;61651;45.508;12.232;2024-02-23T15:02:25;14.50;99.90
14008;DHT22;61651;45.508;12.232;2024-02-23T15:05:27;14.60;99.90
14008;DHT22;61651;45.508;12.232;2024-02-23T15:08:29;14.60;99.90
14008;DHT22;61651;45.508;12.232;2024-02-23T15:11:31;14.50;99.90
14008;DHT22;61651;45.508;12.232;2024-02-23T15:14:33;14.30;99.90
14008;DHT22;61651;45.508;12.232;2024-02-23T15:17:36;14.30;99.90
14008;DHT22;61651;45.508;12.232;2024-02-23T15:20:38;14.20;99.90
14008;DHT22;61651;45.508;12.232;2024-02-23T15:23:40;14.10;99.90
14008;DHT22;61651;45.508;12.232;2024-02-23T15:26:43;13.70;99.90
14008;DHT22;61651;45.508;12.232;2024-02-23T15:29:46;13.30;99.90
14008;DHT22;61651;45.508;12.232;2024-02-23T15:32:49;13.40;99.90
14008;DHT22;61651;45.508;12.232;2024-02-23T15:35:52;13.00;99.90
14008;DHT22;61651;45.508;12.232;2024-02-23T15:38:54;13.10;99.90
14008;DHT22;61651;45.508;12.232;2024-02-23T15:41:59;12.90;99.90
14008;DHT22;61651;45.508;12.232;2024-02-23T15:45:01;12.70;99.90
14008;DHT22;61651;45.508;12.232;2024-02-23T15:48:06;12.60;99.90
14008;DHT22;61651;45.508;12.232;2024-02-23T15:51:09;12.40;99.90
14008;DHT22;61651;45.508;12.232;2024-02-23T15:54:11;12.30;99.90
14008;DHT22;61651;45.508;12.232;2024-02-23T15:57:14;12.10;99.90
14008;DHT22;61651;45.508;12.232;2024-02-23T16:00:16;12.30;99.90
14008;DHT22;61651;45.508;12.232;2024-02-23T16:03:20;12.20;99.90
14008;DHT22;61651;45.508;12.232;2024-02-23T16:06:23;12.20;99.90
14008;DHT22;61651;45.508;12.232;2024-02-23T16:09:26;12.10;99.90
14008;DHT22;61651;45.508;12.232;2024-02-23T16:12:28;12.00;99.90
14008;DHT22;61651;45.508;12.232;2024-02-23T16:15:30;12.00;99.90
14008;DHT22;61651;45.508;12.232;2024-02-23T16:18:33;12.00;99.90
14008;DHT22;61651;45.508;12.232;2024-02-23T16:21:35;12.10;99.90
14008;DHT22;61651;45.508;12.232;2024-02-23T16:24:38;12.20;99.90
14008;DHT22;61651;45.508;12.232;2024-02-23T16:27:41;12.20;99.90
14008;DHT22;61651;45.508;12.232;2024-02-23T16:30:43;12.10;99.90
14008;DHT22;61651;45.508;12.232;2024-02-23T16:33:46;11.90;99.90
14008;DHT22;61651;45.508;12.232;2024-02-23T16:36:48;11.90;99.90
14008;DHT22;61651;45.508;12.232;2024-02-23T16:39:50;11.90;99.90
14008;DHT22;61651;45.508;12.232;2024-02-23T16:42:53;11.80;99.90
14008;DHT22;61651;45.508;12.232;2024-02-23T16:45:55;11.80;99.90
14008;DHT22;61651;45.508;12.232;2024-02-23T16:48:58;11.80;99.90
14008;DHT22;61651;45.508;12.232;2024-02-23T16:52:01;11.80;99.90
14008;DHT22;61651;45.508;12.232;2024-02-23T16:55:04;12.10;99.90
14008;DHT22;61651;45.508;12.232;2024-02-23T16:58:06;12.20;99.90
14008;DHT22;61651;45.508;12.232;2024-02-23T17:01:09;12.30;99.90
14008;DHT22;61651;45.508;12.232;2024-02-23T17:04:13;12.40;99.90
14008;DHT22;61651;45.508;12.232;2024-02-23T17:07:15;12.30;99.90
14008;DHT22;61651;45.508;12.232;2024-02-23T17:10:17;12.40;99.90
14008;DHT22;61651;45.508;12.232;2024-02-23T17:13:19;12.50;99.90
14008;DHT22;61651;45.508;12.232;2024-02-23T17:16:21;12.90;99.90
14008;DHT22;61651;45.508;12.232;2024-02-23T17:19:29;12.80;99.90
14008;DHT22;61651;45.508;12.232;2024-02-23T17:22:31;12.90;99.90
14008;DHT22;61651;45.508;12.232;2024-02-23T17:25:33;13.10;99.90
14008;DHT22;61651;45.508;12.232;2024-02-23T17:28:35;13.40;99.90
14008;DHT22;61651;45.508;12.232;2024-02-23T17:31:38;13.50;99.90
14008;DHT22;61651;45.508;12.232;2024-02-23T17:34:42;13.70;99.90
14008;DHT22;61651;45.508;12.232;2024-02-23T17:37:44;13.70;99.90
14008;DHT22;61651;45.508;12.232;2024-02-23T17:40:46;13.80;99.90
14008;DHT22;61651;45.508;12.232;2024-02-23T17:43:51;13.80;99.90
14008;DHT22;61651;45.508;12.232;2024-02-23T17:46:53;13.80;99.90
14008;DHT22;61651;45.508;12.232;2024-02-23T17:49:57;13.60;99.90
14008;DHT22;61651;45.508;12.232;2024-02-23T17:52:59;13.40;99.90
14008;DHT22;61651;45.508;12.232;2024-02-23T17:56:01;13.50;99.90
14008;DHT22;61651;45.508;12.232;2024-02-23T17:59:03;12.70;99.90
14008;DHT22;61651;45.508;12.232;2024-02-23T18:02:05;12.00;99.90
14008;DHT22;61651;45.508;12.232;2024-02-23T18:05:09;11.60;99.90
14008;DHT22;61651;45.508;12.232;2024-02-23T18:08:11;11.60;99.90
14008;DHT22;61651;45.508;12.232;2024-02-23T18:11:13;11.60;99.90
14008;DHT22;61651;45.508;12.232;2024-02-23T18:14:15;11.60;99.90
14008;DHT22;61651;45.508;12.232;2024-02-23T18:17:17;11.50;99.90
14008;DHT22;61651;45.508;12.232;2024-02-23T18:20:20;11.60;99.90
14008;DHT22;61651;45.508;12.232;2024-02-23T18:23:23;12.10;99.90
14008;DHT22;61651;45.508;12.232;2024-02-23T18:26:25;12.30;99.90
14008;DHT22;61651;45.508;12.232;2024-02-23T18:29:27;12.10;99.90
14008;DHT22;61651;45.508;12.232;2024-02-23T18:32:29;11.80;99.90
14008;DHT22;61651;45.508;12.232;2024-02-23T18:35:33;11.40;99.90
14008;DHT22;61651;45.508;12.232;2024-02-23T18:38:35;11.40;99.90
14008;DHT22;61651;45.508;12.232;2024-02-23T18:41:37;11.30;99.90
14008;DHT22;61651;45.508;12.232;2024-02-23T18:44:39;11.60;99.90
14008;DHT22;61651;45.508;12.232;2024-02-23T18:47:41;11.70;99.90
14008;DHT22;61651;45.508;12.232;2024-02-23T18:50:45;11.60;99.90
14008;DHT22;61651;45.508;12.232;2024-02-23T18:53:48;11.50;99.90